الصفحة الرئيسية
METAR-TAF:

METAR-TAF

مطار :

غراتس, النمسا

دائرة عرض: 47-00N, خط طول: 015-26E, ارتفاع: 340 متر

مراقبة الطقس الحالي

تاريخ ووقت الإصدار 33 دقيقة قبل الساعة 15:50UTC
ريح 10 عقدة من الجنوب/الجنوب الشرقي
درجة الحرارة 17°درجة مئوية
الرطوبة 23%
ضغط 1028 hPa
الرؤية 10 كم أو أكثر

METAR: LOWG 061550Z AUTO 16010KT 9999 NCD 17/M04 Q1028 NOSIG

زمن: 18:23 (16:23 UTC)

توقعات

تاريخ ووقت الإصدار 5ساعات و 8 دقيقة قبل الساعة 11:15UTC
التوقعات صالحة من06 الساعة 12 UTC إلى 07 الساعة 12 UTC
ريح 4 عقدةمن اتجاهات متغيرة
الرؤية 10 كم أو أكثر
الغيوم لا تقل 1500 م ولا وجود لمزنة ركامية السحاب الأسود
مؤقت
من 06 الساعة 12 UTC إلى 06 الساعة 18 UTC
ريح 12 عقدة من الجنوب/الجنوب الشرقي

TAF: LOWG 061115Z 0612/0712 VRB04KT CAVOK TX18/0614Z TNM01/0704Z TEMPO 0612/0618 16012KT

أرصاد الطقس والتوقعات من أكثر من 4000 مطار (تقارير الطقس للمطار METAR والتنبؤ بالطقس بالمطارTAF).

المحطات المتاحة هي النقط الصفراء والحمراء على الخريطة.

حرك المؤشر فوق النقطة لمعرفة اسم المحطة.

ثم انقر لمعرفة أرصاد وتوقعات الطقس.

لتغيير الخارطة: اضغط على الأزرار الخضراء مع رمز الصليب الأسود للتكبير. على الزر الأخضر مع شرطة للتصغير، أو على الأسهم الخضراء للخرائط المجاورة.


METAR-TAF: